Time;durP1;ratioP1;P1;durP2;ratioP2;P2;SDS_P1;SDS_P2;PMS_P1;PMS_P2;Temp;Humidity;BMP_temperature;BMP_pressure;BME280_temperature;BME280_humidity;BME280_pressure;Samples;Min_cycle;Max_cycle;Signal;HPM_P1;HPM_P2
2023/03/29 00:01:48;;;;;;;57.80;26.20;;;;;;;-4.47;61.66;101050.12;129781;1264;114775;-69
2023/03/29 00:04:52;;;;;;;57.80;25.80;;;;;;;-4.49;62.19;101038.20;129911;1260;114715;-69
2023/03/29 00:08:00;;;;;;;58.10;26.90;;;;;;;-4.52;62.32;101033.79;129919;1261;127893;-69
2023/03/29 00:11:03;;;;;;;49.80;25.10;;;;;;;-4.53;62.45;101030.77;129613;1254;116351;-69
2023/03/29 00:14:05;;;;;;;53.80;26.50;;;;;;;-4.55;62.53;101028.13;130057;1254;114730;-69
2023/03/29 00:17:07;;;;;;;58.30;26.80;;;;;;;-4.56;62.85;101027.23;130320;1254;114724;-69
2023/03/29 00:20:11;;;;;;;64.30;27.80;;;;;;;-4.59;62.92;101030.31;130016;1277;114749;-69
2023/03/29 00:23:13;;;;;;;58.10;27.30;;;;;;;-4.61;63.05;101029.21;130070;1258;114741;-69
2023/03/29 00:26:15;;;;;;;57.50;28.10;;;;;;;-4.63;63.24;101026.36;130212;1278;114788;-69
2023/03/29 00:29:17;;;;;;;54.60;27.50;;;;;;;-4.65;63.35;101025.11;130336;1257;114802;-69
2023/03/29 00:32:19;;;;;;;59.80;28.90;;;;;;;-4.66;63.34;101021.23;130170;1261;117206;-69
2023/03/29 00:35:21;;;;;;;58.30;28.60;;;;;;;-4.68;63.69;101015.77;130021;1260;115256;-69
2023/03/29 00:38:24;;;;;;;58.00;27.30;;;;;;;-4.70;63.48;101015.90;129975;1260;114808;-69
2023/03/29 00:41:27;;;;;;;58.90;29.60;;;;;;;-4.73;63.91;101013.23;130350;1257;114761;-70
2023/03/29 00:44:50;;;;;;;80.20;35.70;;;;;;;-4.75;63.86;101012.67;129920;1260;114801;-69
2023/03/29 00:48:02;;;;;;;83.00;38.10;;;;;;;-4.77;63.70;101013.48;129930;1276;128839;-70
2023/03/29 00:51:07;;;;;;;66.40;31.60;;;;;;;-4.79;64.16;101019.17;129750;1257;114791;-71
2023/03/29 00:54:13;;;;;;;76.40;33.50;;;;;;;-4.81;64.21;101018.09;129639;1256;114778;-69
2023/03/29 00:57:17;;;;;;;83.30;39.70;;;;;;;-4.84;64.29;101011.75;130037;1276;115483;-70
2023/03/29 01:00:22;;;;;;;84.70;34.70;;;;;;;-4.86;64.26;101011.52;129904;1261;114807;-69
2023/03/29 01:03:29;;;;;;;68.10;33.80;;;;;;;-4.88;64.76;101010.59;129945;1261;128120;-70
2023/03/29 01:06:34;;;;;;;60.20;30.40;;;;;;;-4.90;64.90;101007.60;130323;1268;114786;-70
2023/03/29 01:09:38;;;;;;;66.40;31.90;;;;;;;-4.93;64.72;101007.34;130406;1251;114770;-70
2023/03/29 01:12:50;;;;;;;66.30;30.70;;;;;;;-4.95;64.34;101003.96;130370;1251;114819;-68
2023/03/29 01:15:53;;;;;;;64.00;30.00;;;;;;;-4.97;64.73;101001.14;130394;1267;114900;-68
2023/03/29 01:18:59;;;;;;;63.40;32.20;;;;;;;-5.00;64.59;100996.89;130642;1273;114783;-70
2023/03/29 01:22:24;;;;;;;74.40;32.40;;;;;;;-5.02;64.61;100992.65;130616;1254;114776;-70
2023/03/29 01:25:56;;;;;;;77.20;35.80;;;;;;;-5.05;65.13;100994.52;130553;1254;115196;-68
2023/03/29 01:29:03;;;;;;;75.00;34.60;;;;;;;-5.07;64.86;100991.14;130543;1254;114657;-69
2023/03/29 01:32:10;;;;;;;70.70;33.60;;;;;;;-5.08;65.04;100993.89;130356;1259;114817;-67
2023/03/29 01:35:27;;;;;;;79.20;35.30;;;;;;;-5.10;65.28;100992.97;129993;1273;128751;-67
2023/03/29 01:38:49;;;;;;;89.80;41.10;;;;;;;-5.12;65.47;100981.96;130223;1274;114983;-66
2023/03/29 01:41:58;;;;;;;77.30;35.00;;;;;;;-5.13;65.56;100981.23;129990;1273;114956;-67
2023/03/29 01:45:39;;;;;;;85.80;38.60;;;;;;;-5.15;65.22;100982.58;130216;1265;114760;-66
2023/03/29 01:48:48;;;;;;;95.50;41.30;;;;;;;-5.17;66.00;100977.64;129503;1273;114910;-68
2023/03/29 01:51:55;;;;;;;85.40;37.40;;;;;;;-5.19;65.29;100973.23;130133;1257;128779;-69
2023/03/29 01:55:25;;;;;;;83.00;36.50;;;;;;;-5.21;65.76;100970.06;130113;1260;114818;-66
2023/03/29 01:58:40;;;;;;;86.70;38.90;;;;;;;-5.23;66.15;100971.77;129586;1258;115281;-67
2023/03/29 02:01:47;;;;;;;85.20;38.60;;;;;;;-5.25;66.08;100972.23;129666;1257;114865;-70
2023/03/29 02:04:52;;;;;;;92.60;41.10;;;;;;;-5.26;66.03;100972.04;129847;1267;114817;-67
2023/03/29 02:07:56;;;;;;;82.30;38.90;;;;;;;-5.27;66.40;100976.16;129578;1280;128949;-67
2023/03/29 02:10:58;;;;;;;97.50;40.00;;;;;;;-5.28;66.33;100976.67;129507;1279;114942;-69
2023/03/29 02:14:00;;;;;;;85.80;38.80;;;;;;;-5.28;66.32;100974.23;129608;1261;115349;-68
2023/03/29 02:17:17;;;;;;;79.80;37.50;;;;;;;-5.29;66.16;100972.48;129676;1257;114852;-67
2023/03/29 02:20:23;;;;;;;94.40;41.20;;;;;;;-5.29;66.88;100971.08;129747;1257;114845;-67
2023/03/29 02:23:45;;;;;;;87.20;37.80;;;;;;;-5.29;66.61;100971.25;129602;1251;114834;-68
2023/03/29 02:26:47;;;;;;;82.60;36.60;;;;;;;-5.29;66.46;100965.50;130316;1256;127671;-67
2023/03/29 02:29:50;;;;;;;84.30;38.40;;;;;;;-5.27;66.70;100965.70;130300;1254;114800;-68
2023/03/29 02:33:06;;;;;;;88.20;37.80;;;;;;;-5.27;66.74;100963.47;130234;1255;115320;-69
2023/03/29 02:36:16;;;;;;;84.80;37.20;;;;;;;-5.25;66.89;100959.51;130158;1260;115095;-69
2023/03/29 02:39:19;;;;;;;81.10;38.10;;;;;;;-5.23;67.05;100961.48;130610;1254;115387;-69
2023/03/29 02:42:21;;;;;;;73.40;35.00;;;;;;;-5.21;67.16;100961.53;130118;1255;114733;-69
2023/03/29 02:45:24;;;;;;;76.70;36.20;;;;;;;-5.20;66.94;100961.20;130176;1256;114798;-68
2023/03/29 02:48:27;;;;;;;78.90;36.70;;;;;;;-5.18;66.95;100961.59;130259;1257;114795;-67
2023/03/29 02:51:33;;;;;;;79.80;34.20;;;;;;;-5.17;67.33;100959.36;130504;1251;114795;-69
2023/03/29 02:54:41;;;;;;;64.30;32.70;;;;;;;-5.16;67.61;100955.20;130393;1270;114791;-69
2023/03/29 02:57:44;;;;;;;72.20;31.80;;;;;;;-5.16;67.38;100949.98;130348;1257;114782;-68
2023/03/29 03:00:47;;;;;;;68.10;31.80;;;;;;;-5.15;67.48;100942.67;130197;1254;114745;-69
2023/03/29 03:03:50;;;;;;;68.10;31.40;;;;;;;-5.14;67.67;100941.50;130170;1257;114814;-68
2023/03/29 03:06:52;;;;;;;70.70;33.00;;;;;;;-5.13;67.80;100938.75;130397;1252;114820;-68
2023/03/29 03:09:55;;;;;;;75.10;31.90;;;;;;;-5.11;67.53;100939.13;130310;1254;114758;-69
2023/03/29 03:12:58;;;;;;;68.60;33.30;;;;;;;-5.10;67.85;100937.41;130473;1254;114752;-69
2023/03/29 03:16:00;;;;;;;70.10;32.60;;;;;;;-5.08;68.12;100928.94;130307;1273;114721;-68
2023/03/29 03:19:02;;;;;;;71.60;32.40;;;;;;;-5.06;67.98;100928.81;130476;1251;114831;-70
2023/03/29 03:22:06;;;;;;;67.20;31.90;;;;;;;-5.04;68.13;100925.73;130645;1254;114741;-71
2023/03/29 03:25:10;;;;;;;67.90;30.70;;;;;;;-5.01;68.40;100920.90;130639;1254;114755;-70
2023/03/29 03:28:12;;;;;;;70.30;31.20;;;;;;;-5.00;68.01;100918.69;130241;1251;114774;-67
2023/03/29 03:31:14;;;;;;;63.10;28.90;;;;;;;-4.98;68.60;100917.52;130588;1254;114750;-67
2023/03/29 03:34:18;;;;;;;62.00;29.50;;;;;;;-4.96;68.52;100918.08;130546;1251;115436;-70
2023/03/29 03:37:21;;;;;;;66.60;31.30;;;;;;;-4.94;68.64;100917.42;130607;1251;128622;-71
2023/03/29 03:40:23;;;;;;;60.00;28.00;;;;;;;-4.92;68.90;100911.39;130576;1251;115433;-69
2023/03/29 03:43:27;;;;;;;67.50;30.10;;;;;;;-4.89;68.79;100910.05;130569;1254;114729;-70
2023/03/29 03:46:29;;;;;;;62.30;28.40;;;;;;;-4.87;68.86;100904.88;130574;1251;115377;-70
2023/03/29 03:49:32;;;;;;;53.80;26.60;;;;;;;-4.86;68.90;100901.94;129985;1255;114826;-70
2023/03/29 03:52:34;;;;;;;62.00;27.90;;;;;;;-4.84;69.33;100897.95;130686;1255;115084;-69
2023/03/29 03:55:36;;;;;;;57.00;26.40;;;;;;;-4.83;69.17;100892.07;130586;1250;129588;-70
2023/03/29 03:58:38;;;;;;;55.60;23.40;;;;;;;-4.81;69.29;100889.67;130613;1263;114717;-70
2023/03/29 04:01:44;;;;;;;52.50;25.80;;;;;;;-4.80;69.43;100889.36;130655;1253;114756;-69
2023/03/29 04:04:46;;;;;;;49.40;23.90;;;;;;;-4.78;69.41;100890.27;130652;1252;114738;-70
2023/03/29 04:07:48;;;;;;;60.30;27.50;;;;;;;-4.77;69.51;100895.35;130718;1269;114784;-71
2023/03/29 04:10:52;;;;;;;58.50;29.10;;;;;;;-4.75;69.78;100894.87;130632;1254;115416;-69
2023/03/29 04:13:56;;;;;;;56.20;27.50;;;;;;;-4.73;69.72;100895.95;130476;1267;115147;-70
2023/03/29 04:16:58;;;;;;;55.90;26.20;;;;;;;-4.71;70.01;100890.76;130494;1272;127887;-68
2023/03/29 04:20:05;;;;;;;66.00;30.00;;;;;;;-4.70;69.86;100886.95;130621;1265;114835;-67
2023/03/29 04:23:08;;;;;;;60.60;30.10;;;;;;;-4.66;69.84;100886.00;130476;1254;114877;-69
2023/03/29 04:26:16;;;;;;;64.60;31.80;;;;;;;-4.62;70.47;100885.22;130251;1267;114826;-70
2023/03/29 04:29:19;;;;;;;81.80;34.00;;;;;;;-4.59;70.02;100881.63;130705;1255;114845;-69
2023/03/29 04:32:21;;;;;;;64.80;31.60;;;;;;;-4.55;70.32;100875.61;130589;1273;114724;-69
2023/03/29 04:35:23;;;;;;;66.20;31.70;;;;;;;-4.49;70.01;100878.16;130228;1257;114721;-70
2023/03/29 04:38:25;;;;;;;57.20;28.70;;;;;;;-4.43;70.50;100877.27;130548;1257;115288;-68
2023/03/29 04:41:27;;;;;;;45.30;23.70;;;;;;;-4.34;70.34;100880.58;130525;1253;114760;-69
2023/03/29 04:44:32;;;;;;;57.40;25.00;;;;;;;-4.24;70.54;100875.89;130478;1256;114813;-70
2023/03/29 04:47:35;;;;;;;49.90;24.10;;;;;;;-4.14;70.42;100868.60;130433;1256;115039;-69
2023/03/29 04:50:37;;;;;;;49.40;23.80;;;;;;;-4.04;70.79;100875.08;130325;1257;114807;-68
2023/03/29 04:53:39;;;;;;;59.00;27.60;;;;;;;-3.93;70.85;100869.52;130476;1256;115441;-70
2023/03/29 04:56:41;;;;;;;60.50;26.60;;;;;;;-3.83;71.05;100870.91;130208;1274;114821;-68
2023/03/29 04:59:43;;;;;;;48.20;23.00;;;;;;;-3.74;70.51;100869.87;130546;1256;114791;-70
2023/03/29 05:02:46;;;;;;;51.70;25.50;;;;;;;-3.65;70.40;100871.59;130538;1257;114772;-71
2023/03/29 05:05:48;;;;;;;51.70;24.70;;;;;;;-3.56;70.55;100875.25;130372;1259;114690;-67
2023/03/29 05:08:51;;;;;;;59.20;27.20;;;;;;;-3.47;70.82;100877.83;130126;1251;114738;-67
2023/03/29 05:11:53;;;;;;;56.70;25.70;;;;;;;-3.38;70.54;100872.95;130483;1274;115298;-69
2023/03/29 05:14:56;;;;;;;56.00;25.70;;;;;;;-3.29;70.75;100872.55;130482;1275;114755;-69
2023/03/29 05:17:59;;;;;;;51.20;24.70;;;;;;;-3.21;70.72;100866.23;130010;1275;116529;-67
2023/03/29 05:21:02;;;;;;;49.40;23.00;;;;;;;-3.12;70.59;100864.80;130127;1264;114978;-68
2023/03/29 05:24:05;;;;;;;38.90;19.50;;;;;;;-3.04;70.49;100861.95;130271;1252;114727;-67
2023/03/29 05:27:08;;;;;;;40.20;18.80;;;;;;;-2.94;70.71;100866.63;130279;1254;114795;-68
2023/03/29 05:30:14;;;;;;;38.90;18.20;;;;;;;-2.86;70.06;100870.59;130575;1254;114737;-68
2023/03/29 05:33:17;;;;;;;36.00;17.70;;;;;;;-2.77;69.86;100868.98;130565;1254;115310;-68
2023/03/29 05:36:20;;;;;;;39.00;16.20;;;;;;;-2.69;70.68;100869.44;130272;1260;114890;-67
2023/03/29 05:39:22;;;;;;;35.70;17.20;;;;;;;-2.58;70.02;100865.02;130635;1270;114811;-68
2023/03/29 05:42:25;;;;;;;36.10;17.70;;;;;;;-2.47;70.43;100862.20;130648;1254;115499;-67
2023/03/29 05:45:28;;;;;;;41.70;20.10;;;;;;;-2.36;70.23;100857.10;130370;1272;114981;-68
2023/03/29 05:48:31;;;;;;;39.30;19.10;;;;;;;-2.24;70.16;100854.80;130111;1251;127819;-67
2023/03/29 05:51:34;;;;;;;43.60;20.30;;;;;;;-2.12;70.34;100854.75;130497;1251;114759;-68
2023/03/29 05:54:36;;;;;;;47.60;19.50;;;;;;;-2.00;70.00;100853.84;130454;1251;115166;-66
2023/03/29 05:57:38;;;;;;;37.50;17.90;;;;;;;-1.89;70.25;100856.58;130669;1251;114735;-67
2023/03/29 06:00:41;;;;;;;38.70;18.90;;;;;;;-1.75;70.19;100852.70;130414;1253;114796;-67
2023/03/29 06:03:47;;;;;;;38.10;17.50;;;;;;;-1.61;70.39;100851.95;130337;1252;114785;-67
2023/03/29 06:06:51;;;;;;;31.20;17.00;;;;;;;-1.45;70.23;100851.75;130474;1273;130108;-68
2023/03/29 06:09:54;;;;;;;36.00;16.30;;;;;;;-1.28;70.21;100845.58;130148;1273;115162;-68
2023/03/29 06:12:56;;;;;;;33.40;16.90;;;;;;;-1.07;70.25;100845.20;130436;1262;114785;-65
2023/03/29 06:15:59;;;;;;;35.90;16.70;;;;;;;-0.81;69.76;100840.63;130902;1251;114708;-67
2023/03/29 06:19:01;;;;;;;32.00;15.10;;;;;;;-0.48;70.17;100836.42;130200;1254;114703;-64
2023/03/29 06:22:03;;;;;;;29.10;14.80;;;;;;;-0.03;69.99;100832.37;130388;1251;114765;-66
2023/03/29 06:25:09;;;;;;;36.80;17.40;;;;;;;0.46;69.48;100831.21;130369;1254;114753;-66
2023/03/29 06:28:13;;;;;;;36.40;15.70;;;;;;;0.95;69.20;100826.45;130109;1251;115224;-67
2023/03/29 06:31:16;;;;;;;37.90;15.10;;;;;;;1.39;68.88;100825.45;130515;1253;114813;-66
2023/03/29 06:34:19;;;;;;;31.00;14.20;;;;;;;1.83;68.56;100823.16;130326;1251;114750;-68
2023/03/29 06:37:22;;;;;;;37.40;15.70;;;;;;;2.30;68.35;100821.10;130305;1273;115143;-68
2023/03/29 06:40:26;;;;;;;34.50;15.10;;;;;;;2.80;67.83;100816.83;130342;1273;114717;-68
2023/03/29 06:43:28;;;;;;;32.30;15.00;;;;;;;3.19;67.15;100810.97;130492;1273;114727;-68
2023/03/29 06:46:31;;;;;;;26.20;13.60;;;;;;;3.59;66.85;100813.52;130396;1270;114798;-68
2023/03/29 06:49:33;;;;;;;31.00;13.90;;;;;;;4.01;66.47;100811.55;130748;1253;114730;-69
2023/03/29 06:52:35;;;;;;;29.50;14.00;;;;;;;4.52;66.12;100806.52;130338;1270;114945;-68
2023/03/29 06:55:37;;;;;;;28.40;13.10;;;;;;;5.03;65.59;100804.59;130517;1254;114678;-68
2023/03/29 06:58:39;;;;;;;29.50;13.10;;;;;;;5.51;64.69;100801.73;130595;1273;114763;-68
2023/03/29 07:01:41;;;;;;;28.60;13.00;;;;;;;5.90;63.92;100799.12;130520;1254;114809;-68
2023/03/29 07:04:44;;;;;;;22.50;11.60;;;;;;;6.29;63.25;100796.48;130285;1251;115212;-68
2023/03/29 07:07:59;;;;;;;21.90;11.00;;;;;;;6.69;62.98;100793.05;130498;1256;115114;-67
2023/03/29 07:11:01;;;;;;;27.20;14.70;;;;;;;7.13;62.37;100790.27;130528;1255;114664;-68
2023/03/29 07:14:04;;;;;;;28.10;12.10;;;;;;;7.31;61.30;100782.65;130632;1254;114815;-67
2023/03/29 07:17:06;;;;;;;24.00;11.80;;;;;;;7.48;60.88;100783.45;130552;1254;115143;-68
2023/03/29 07:20:12;;;;;;;22.70;10.00;;;;;;;7.68;60.22;100788.54;130608;1262;114804;-66
2023/03/29 07:23:14;;;;;;;15.70;8.20;;;;;;;7.89;60.27;100784.91;130446;1251;115249;-68
2023/03/29 07:26:19;;;;;;;18.00;7.90;;;;;;;8.04;59.31;100787.47;130686;1253;115601;-68
2023/03/29 07:29:22;;;;;;;17.20;8.10;;;;;;;8.12;58.79;100789.17;130162;1257;114725;-68
2023/03/29 07:32:25;;;;;;;17.60;8.60;;;;;;;8.13;58.43;100788.42;130539;1257;114765;-68
2023/03/29 07:35:27;;;;;;;17.40;8.10;;;;;;;8.22;57.72;100793.84;130442;1257;114746;-68
2023/03/29 07:38:31;;;;;;;17.30;6.90;;;;;;;8.42;58.15;100793.04;130448;1273;115189;-69
2023/03/29 07:41:33;;;;;;;14.00;7.20;;;;;;;8.64;57.66;100788.42;130651;1251;114786;-69
2023/03/29 07:44:36;;;;;;;14.40;7.00;;;;;;;8.85;57.02;100784.84;130663;1253;114717;-67
2023/03/29 07:47:39;;;;;;;13.60;6.60;;;;;;;8.97;55.71;100779.61;130368;1256;245178;-68
2023/03/29 07:50:42;;;;;;;15.90;6.80;;;;;;;9.12;55.49;100783.18;130731;1253;114705;-68
2023/03/29 07:53:44;;;;;;;17.10;7.40;;;;;;;9.30;55.50;100780.43;130587;1250;114789;-68
2023/03/29 07:56:46;;;;;;;14.50;6.90;;;;;;;9.48;55.16;100779.73;130673;1263;114826;-68
2023/03/29 07:59:48;;;;;;;19.50;8.60;;;;;;;9.54;55.05;100776.67;130685;1254;114792;-68
2023/03/29 08:02:51;;;;;;;13.70;6.70;;;;;;;9.61;54.86;100772.50;130400;1257;114763;-68
2023/03/29 08:05:54;;;;;;;12.80;7.00;;;;;;;9.73;54.59;100775.09;130872;1264;114715;-67
2023/03/29 08:08:56;;;;;;;16.40;7.50;;;;;;;9.81;54.34;100774.93;130626;1254;115220;-68
2023/03/29 08:11:58;;;;;;;12.20;6.70;;;;;;;9.97;54.02;100773.61;130715;1270;114808;-68
2023/03/29 08:15:00;;;;;;;13.30;6.50;;;;;;;10.10;53.58;100774.00;130316;1251;127734;-68
2023/03/29 08:18:03;;;;;;;13.90;5.80;;;;;;;10.15;53.30;100772.35;130621;1254;114760;-68
2023/03/29 08:21:06;;;;;;;13.10;6.50;;;;;;;10.28;52.91;100763.27;130536;1252;114795;-69
2023/03/29 08:24:08;;;;;;;13.80;6.50;;;;;;;10.38;52.67;100762.19;130629;1254;114731;-68
2023/03/29 08:27:13;;;;;;;13.60;5.70;;;;;;;10.61;52.73;100759.46;130550;1273;114817;-68
2023/03/29 08:30:15;;;;;;;15.30;6.70;;;;;;;10.90;52.26;100757.31;130484;1260;114766;-68
2023/03/29 08:33:17;;;;;;;17.70;7.80;;;;;;;11.09;51.83;100750.77;130482;1273;115334;-68
2023/03/29 08:36:22;;;;;;;10.80;5.10;;;;;;;11.31;51.97;100746.58;130296;1260;115016;-67
2023/03/29 08:39:25;;;;;;;10.70;5.10;;;;;;;11.44;50.00;100741.53;130591;1251;115100;-68
2023/03/29 08:43:02;;;;;;;13.70;5.00;;;;;;;11.47;50.30;100737.79;130616;1250;114738;-69
2023/03/29 08:46:30;;;;;;;14.50;5.70;;;;;;;11.49;50.61;100737.00;129864;1280;115013;-67
2023/03/29 08:49:34;;;;;;;10.00;4.00;;;;;;;11.48;49.11;100735.44;129726;1257;127130;-68
2023/03/29 08:52:45;;;;;;;10.20;4.00;;;;;;;11.34;49.37;100738.21;130007;1261;114942;-69
2023/03/29 08:55:48;;;;;;;7.10;3.60;;;;;;;11.25;49.17;100729.49;129726;1262;114886;-69
2023/03/29 08:58:51;;;;;;;8.80;4.10;;;;;;;11.04;49.12;100726.50;129848;1263;115259;-69
2023/03/29 09:01:56;;;;;;;10.40;3.90;;;;;;;10.96;48.18;100727.05;129726;1263;115305;-68
2023/03/29 09:05:17;;;;;;;5.70;3.00;;;;;;;10.85;48.39;100726.27;129868;1267;127985;-68
2023/03/29 09:08:20;;;;;;;6.90;2.70;;;;;;;10.77;48.30;100726.60;129858;1260;115291;-68
2023/03/29 09:11:22;;;;;;;5.50;2.90;;;;;;;10.78;48.44;100726.22;129723;1265;114905;-68
2023/03/29 09:14:27;;;;;;;7.30;2.90;;;;;;;10.87;48.42;100726.17;129750;1282;115291;-68
2023/03/29 09:17:42;;;;;;;6.00;3.60;;;;;;;10.93;48.22;100727.88;129749;1266;114900;-68
2023/03/29 09:20:56;;;;;;;11.20;3.20;;;;;;;10.93;47.94;100722.69;129743;1276;129429;-68
2023/03/29 09:24:21;;;;;;;8.70;3.70;;;;;;;11.10;48.01;100716.60;130341;1260;115359;-68
2023/03/29 09:27:40;;;;;;;6.10;3.60;;;;;;;11.23;47.88;100717.42;130344;1273;114821;-68
2023/03/29 09:31:13;;;;;;;10.50;3.10;;;;;;;11.36;47.68;100713.95;130501;1254;114907;-68
2023/03/29 09:34:22;;;;;;;7.10;3.40;;;;;;;11.55;48.14;100708.64;130625;1254;114736;-68
2023/03/29 09:37:31;;;;;;;8.20;3.40;;;;;;;11.68;47.47;100706.21;130731;1254;128043;-69
2023/03/29 09:40:40;;;;;;;7.40;3.70;;;;;;;11.72;46.67;100704.63;130714;1253;114730;-68
2023/03/29 09:43:43;;;;;;;13.10;3.60;;;;;;;11.76;46.93;100701.23;130809;1251;114718;-68
2023/03/29 09:46:54;;;;;;;8.60;4.00;;;;;;;11.83;47.09;100697.30;130734;1270;114795;-68
2023/03/29 09:50:01;;;;;;;10.00;4.30;;;;;;;11.83;46.84;100688.69;130324;1273;114831;-68
2023/03/29 09:53:04;;;;;;;7.20;4.70;;;;;;;11.87;47.12;100684.54;130544;1253;126794;-69
2023/03/29 09:56:07;;;;;;;11.50;5.00;;;;;;;11.93;46.84;100683.77;130695;1257;115357;-68
2023/03/29 09:59:11;;;;;;;11.00;4.80;;;;;;;11.94;46.91;100687.27;130772;1251;115848;-67
2023/03/29 10:02:13;;;;;;;7.40;3.70;;;;;;;12.02;46.56;100683.16;130606;1257;114795;-67
2023/03/29 10:05:15;;;;;;;12.40;4.30;;;;;;;12.03;46.58;100679.17;130673;1257;114670;-68
2023/03/29 10:08:22;;;;;;;9.50;4.40;;;;;;;12.07;46.47;100675.02;130569;1258;115468;-66
2023/03/29 10:11:33;;;;;;;9.80;4.50;;;;;;;12.09;45.53;100664.54;130428;1272;115247;-69
2023/03/29 10:14:40;;;;;;;10.80;4.70;;;;;;;12.09;46.02;100661.48;130492;1259;114846;-69
2023/03/29 10:17:44;;;;;;;10.70;4.50;;;;;;;12.06;44.98;100657.36;130403;1251;114827;-69
2023/03/29 10:20:47;;;;;;;13.10;5.40;;;;;;;12.03;45.70;100651.58;130734;1273;114686;-67
2023/03/29 10:23:57;;;;;;;11.60;5.50;;;;;;;12.02;45.47;100652.38;130213;1273;128708;-68
2023/03/29 10:27:05;;;;;;;10.20;4.60;;;;;;;12.04;45.57;100649.03;130795;1273;114759;-67
2023/03/29 10:30:12;;;;;;;9.90;4.80;;;;;;;12.03;45.40;100649.09;130794;1252;114779;-68
2023/03/29 10:33:18;;;;;;;8.10;4.30;;;;;;;12.04;45.40;100645.67;130623;1254;114826;-68
2023/03/29 10:36:22;;;;;;;8.00;4.60;;;;;;;12.07;44.93;100639.05;130464;1256;114914;-67
2023/03/29 10:39:27;;;;;;;11.60;4.80;;;;;;;12.05;44.94;100635.39;130514;1273;128126;-67
2023/03/29 10:42:30;;;;;;;6.50;4.10;;;;;;;12.12;45.48;100632.00;130413;1258;114899;-67
2023/03/29 10:45:34;;;;;;;8.20;4.60;;;;;;;12.30;45.48;100627.29;130497;1267;114727;-68
2023/03/29 10:48:37;;;;;;;8.90;5.00;;;;;;;12.48;45.52;100627.82;130410;1251;115176;-67
2023/03/29 10:51:44;;;;;;;12.50;5.10;;;;;;;12.68;45.37;100620.29;130134;1259;114833;-67
2023/03/29 10:54:47;;;;;;;8.50;4.40;;;;;;;12.84;44.74;100616.63;130518;1270;128963;-68
2023/03/29 10:58:28;;;;;;;9.80;4.60;;;;;;;12.91;44.57;100610.65;130494;1254;115176;-67
2023/03/29 11:01:48;;;;;;;8.60;4.80;;;;;;;13.10;44.39;100601.40;129777;1262;115183;-67
2023/03/29 11:05:12;;;;;;;8.40;4.10;;;;;;;13.24;44.25;100601.55;129952;1262;114901;-67
2023/03/29 11:08:20;;;;;;;9.00;4.30;;;;;;;13.32;43.77;100594.09;129789;1267;114927;-67
2023/03/29 11:11:35;;;;;;;10.50;4.80;;;;;;;13.38;43.91;100591.40;129726;1257;129152;-67
2023/03/29 11:14:55;;;;;;;6.40;4.30;;;;;;;13.47;43.79;100590.38;129578;1263;115281;-67
2023/03/29 11:18:11;;;;;;;7.60;5.80;;;;;;;13.53;43.43;100588.98;129643;1265;114943;-67
2023/03/29 11:21:28;;;;;;;6.60;4.10;;;;;;;13.52;43.13;100585.63;129864;1281;114878;-67
2023/03/29 11:25:05;;;;;;;6.50;4.30;;;;;;;13.49;43.05;100580.94;129612;1262;114770;-67
2023/03/29 11:28:36;;;;;;;9.10;5.00;;;;;;;13.46;43.29;100579.86;129971;1262;129369;-67
2023/03/29 11:32:06;;;;;;;8.20;4.50;;;;;;;13.49;43.12;100574.64;129106;1281;115351;-67
2023/03/29 11:35:33;;;;;;;8.70;5.10;;;;;;;13.55;43.37;100569.88;129347;1287;115429;-67
2023/03/29 11:38:54;;;;;;;7.70;4.00;;;;;;;13.60;43.08;100565.61;129623;1260;114929;-66
2023/03/29 11:42:03;;;;;;;7.00;4.80;;;;;;;13.67;43.13;100557.48;129686;1265;116399;-66
2023/03/29 11:45:12;;;;;;;10.30;4.50;;;;;;;13.63;42.52;100546.07;130021;1257;127997;-67
2023/03/29 11:48:22;;;;;;;10.80;4.70;;;;;;;13.55;42.41;100541.89;129648;1265;116754;-66
2023/03/29 11:51:27;;;;;;;11.40;4.50;;;;;;;13.45;41.91;100539.17;130152;1263;114862;-65
2023/03/29 11:54:33;;;;;;;10.90;4.60;;;;;;;13.35;42.27;100537.07;130057;1262;114853;-67
2023/03/29 11:57:42;;;;;;;7.50;4.20;;;;;;;13.30;42.54;100533.94;129782;1257;114971;-67
2023/03/29 12:00:48;;;;;;;12.20;4.60;;;;;;;13.25;41.82;100526.86;130029;1270;129270;-66
2023/03/29 12:03:55;;;;;;;8.40;3.90;;;;;;;13.19;42.32;100524.31;129998;1261;115252;-67
2023/03/29 12:07:26;;;;;;;9.40;4.30;;;;;;;13.20;41.52;100520.29;129799;1257;114930;-65
2023/03/29 12:10:47;;;;;;;10.20;4.20;;;;;;;13.13;41.59;100516.95;130595;1254;114743;-66
2023/03/29 12:13:53;;;;;;;8.40;4.50;;;;;;;13.05;41.84;100506.80;130488;1267;115182;-66
2023/03/29 12:16:59;;;;;;;8.10;3.80;;;;;;;12.96;41.24;100500.70;130636;1251;128777;-66
2023/03/29 12:20:10;;;;;;;9.00;4.10;;;;;;;12.80;40.95;100496.54;130331;1273;115172;-66
2023/03/29 12:23:14;;;;;;;13.60;5.30;;;;;;;12.63;40.74;100502.84;130698;1273;114730;-66
2023/03/29 12:26:35;;;;;;;10.70;4.30;;;;;;;12.51;41.17;100496.50;130589;1257;115162;-65
2023/03/29 12:29:49;;;;;;;13.30;4.60;;;;;;;12.46;41.43;100492.30;130386;1260;115175;-67
2023/03/29 12:32:57;;;;;;;10.10;4.30;;;;;;;12.42;41.59;100490.72;130637;1254;128992;-66
2023/03/29 12:36:16;;;;;;;9.30;4.20;;;;;;;12.36;41.45;100486.39;130371;1257;117008;-66
2023/03/29 12:39:19;;;;;;;7.90;4.70;;;;;;;12.26;41.48;100481.58;130352;1253;115403;-67
2023/03/29 12:42:22;;;;;;;7.60;4.50;;;;;;;12.18;41.58;100476.05;130837;1253;114794;-67
2023/03/29 12:45:33;;;;;;;8.80;4.20;;;;;;;12.18;41.78;100474.14;130716;1254;114789;-67
2023/03/29 12:48:38;;;;;;;8.40;4.20;;;;;;;12.19;41.47;100469.60;130676;1273;128027;-66
2023/03/29 12:51:42;;;;;;;7.70;4.60;;;;;;;12.18;41.23;100462.12;130739;1251;114763;-66
2023/03/29 12:54:54;;;;;;;13.90;4.60;;;;;;;12.10;41.49;100460.21;130641;1251;114708;-67
2023/03/29 12:58:08;;;;;;;7.10;4.20;;;;;;;11.98;41.60;100456.52;130532;1255;114847;-66
2023/03/29 13:01:31;;;;;;;6.80;4.00;;;;;;;11.90;41.57;100454.25;130459;1256;114763;-66
2023/03/29 13:04:43;;;;;;;7.30;4.30;;;;;;;11.88;41.83;100456.14;130503;1251;127962;-71
2023/03/29 13:07:48;;;;;;;7.90;3.70;;;;;;;11.88;41.50;100453.30;130555;1255;115192;-66
2023/03/29 13:10:55;;;;;;;10.40;3.10;;;;;;;11.88;41.96;100443.60;130550;1272;115288;-67
2023/03/29 13:14:00;;;;;;;9.60;3.50;;;;;;;11.94;41.95;100449.73;130443;1254;116390;-67
2023/03/29 13:17:18;;;;;;;;;;;;;;;12.04;41.93;100447.27;130677;1259;114893;-68
2023/03/29 13:20:30;;;;;;;7.40;3.30;;;;;;;12.11;41.56;100445.47;130224;1273;127493;-68
2023/03/29 13:24:00;;;;;;;7.50;3.40;;;;;;;12.18;41.45;100437.42;130653;1273;115323;-67
2023/03/29 13:27:28;;;;;;;7.20;3.50;;;;;;;12.27;41.51;100431.19;130607;1252;114792;-68
2023/03/29 13:30:54;;;;;;;7.70;3.60;;;;;;;12.39;41.54;100430.52;130529;1254;114781;-68
2023/03/29 13:34:05;;;;;;;8.00;3.50;;;;;;;12.49;40.97;100424.44;130557;1254;114788;-68
2023/03/29 13:37:37;;;;;;;8.80;3.00;;;;;;;12.55;41.11;100428.06;130424;1272;127575;-68
2023/03/29 13:40:39;;;;;;;8.20;4.00;;;;;;;12.56;40.82;100424.25;130416;1257;115227;-68
2023/03/29 13:43:52;;;;;;;4.70;3.00;;;;;;;12.58;40.67;100423.07;130695;1252;114772;-68
2023/03/29 13:47:15;;;;;;;6.30;3.50;;;;;;;12.58;40.58;100423.39;130513;1259;114845;-69
2023/03/29 13:50:28;;;;;;;6.90;3.80;;;;;;;12.55;40.44;100418.58;130676;1254;114747;-69
2023/03/29 13:53:36;;;;;;;7.50;4.00;;;;;;;12.52;40.65;100414.45;130535;1255;128771;-68
2023/03/29 13:56:54;;;;;;;5.80;3.60;;;;;;;12.53;40.50;100403.81;130571;1260;115183;-68
2023/03/29 14:00:14;;;;;;;5.00;3.10;;;;;;;12.56;40.67;100406.47;130520;1257;114711;-68
2023/03/29 14:03:20;;;;;;;7.70;3.70;;;;;;;12.58;40.16;100401.34;130398;1260;114826;-68